Time;durP1;ratioP1;P1;durP2;ratioP2;P2;SDS_P1;SDS_P2;PMS_P1;PMS_P2;Temp;Humidity;BMP_temperature;BMP_pressure;BME280_temperature;BME280_humidity;BME280_pressure;Samples;Min_cycle;Max_cycle;Signal;HPM_P1;HPM_P2
2022/09/15 07:10:07;;;;;;;3.47;2.85;;;;;;;;;;12774999;22;1550424;-82
2022/09/15 07:15:09;;;;;;;4.30;3.35;;;;;;;;;;12786051;23;20009;-83
2022/09/15 07:20:10;;;;;;;5.82;3.55;;;;;;;;;;12788336;23;20024;-80
2022/09/15 07:25:11;;;;;;;3.90;3.10;;;;;;;;;;12789304;23;20009;-82
2022/09/15 07:30:12;;;;;;;5.93;3.90;;;;;;;;;;12790446;23;20024;-82
2022/09/15 07:35:13;;;;;;;5.90;3.97;;;;;;;;;;12814588;23;20005;-82
2022/09/15 07:40:14;;;;;;;6.63;5.75;;;;;;;;;;12789339;23;20016;-82
2022/09/15 07:51:18;;;;;;;21.17;18.88;;;;;;;;;;12811685;23;20001;-84
2022/09/15 08:13:56;;;;;;;9.23;6.43;;;;;;;;;;12507994;23;20022;-84
2022/09/15 08:25:09;;;;;;;5.63;4.57;;;;;;;;;;12514860;23;20474;-84
2022/09/15 08:41:49;;;;;;;6.15;3.88;;;;;;;;;;12827743;23;20001;-83
2022/09/15 08:52:40;;;;;;;5.68;3.30;;;;;;;;;;12822227;23;19997;-82
2022/09/15 08:57:46;;;;;;;;;;;;;;;;;;12790310;23;20001;-83
2022/09/15 09:03:09;;;;;;;3.92;2.58;;;;;;;;;;12821670;23;19908;-82
2022/09/15 09:08:29;;;;;;;4.55;2.15;;;;;;;;;;12799481;23;20088;-82
2022/09/15 09:14:04;;;;;;;7.60;2.25;;;;;;;;;;12817487;23;20024;-83
2022/09/15 09:19:16;;;;;;;6.18;2.00;;;;;;;;;;12487638;23;20087;-82
2022/09/15 09:24:23;;;;;;;3.70;1.90;;;;;;;;;;12482870;23;20112;-83
2022/09/15 09:29:36;;;;;;;4.15;2.00;;;;;;;;;;12490054;23;20124;-83
2022/09/15 09:34:47;;;;;;;5.35;2.45;;;;;;;;;;12487757;23;20131;-82
2022/09/15 09:39:48;;;;;;;4.93;1.90;;;;;;;;;;12606041;23;20009;-83
2022/09/15 09:44:49;;;;;;;5.88;2.20;;;;;;;;;;12803585;23;20020;-82
2022/09/15 09:49:50;;;;;;;5.28;2.25;;;;;;;;;;12794006;23;20384;-82
2022/09/15 09:55:02;;;;;;;4.22;1.83;;;;;;;;;;12787646;23;20005;-83
2022/09/15 10:00:03;;;;;;;4.90;1.92;;;;;;;;;;12789901;23;20001;-83
2022/09/15 10:05:07;;;;;;;7.75;1.95;;;;;;;;;;12796700;23;20068;-84
2022/09/15 10:10:31;;;;;;;5.53;1.80;;;;;;;;;;12821093;23;20012;-84
2022/09/15 10:15:37;;;;;;;3.42;1.48;;;;;;;;;;12797203;23;20009;-84
2022/09/15 10:20:57;;;;;;;5.77;1.90;;;;;;;;;;12818039;23;20009;-84
2022/09/15 10:26:18;;;;;;;5.43;2.03;;;;;;;;;;12795141;23;20260;-84
2022/09/15 10:31:28;;;;;;;4.43;1.40;;;;;;;;;;12823387;23;20009;-84
2022/09/15 10:36:30;;;;;;;4.30;1.60;;;;;;;;;;12792123;23;20334;-82
2022/09/15 10:41:33;;;;;;;4.25;1.70;;;;;;;;;;12786536;23;20008;-82
2022/09/15 10:46:38;;;;;;;4.03;1.50;;;;;;;;;;12823111;23;20080;-80
2022/09/15 10:52:02;;;;;;;3.65;1.58;;;;;;;;;;12798199;23;20012;-82
2022/09/15 10:57:22;;;;;;;3.78;1.30;;;;;;;;;;12799571;23;20098;-81
2022/09/15 11:02:29;;;;;;;4.20;1.30;;;;;;;;;;12794445;23;20013;-81
2022/09/15 11:08:07;;;;;;;2.97;1.38;;;;;;;;;;12793098;23;20009;-81
2022/09/15 11:13:15;;;;;;;3.80;1.50;;;;;;;;;;12816639;23;20005;-81
2022/09/15 11:18:37;;;;;;;3.22;1.48;;;;;;;;;;12794506;23;20017;-79
2022/09/15 11:23:44;;;;;;;3.38;1.20;;;;;;;;;;12820015;23;20100;-83
2022/09/15 11:28:59;;;;;;;2.85;1.00;;;;;;;;;;12795392;23;20104;-82
2022/09/15 11:34:06;;;;;;;3.15;1.00;;;;;;;;;;12793147;23;20013;-82
2022/09/15 11:39:07;;;;;;;3.20;0.98;;;;;;;;;;12790255;23;20015;-82
2022/09/15 11:44:27;;;;;;;3.08;1.20;;;;;;;;;;12795015;23;20032;-81
2022/09/15 11:49:38;;;;;;;3.75;1.30;;;;;;;;;;12791298;23;20353;-81
2022/09/15 11:54:46;;;;;;;4.80;1.48;;;;;;;;;;12792065;23;20421;-82
2022/09/15 11:59:51;;;;;;;3.05;1.48;;;;;;;;;;12790780;23;20012;-82
2022/09/15 12:05:05;;;;;;;6.50;1.42;;;;;;;;;;12791189;23;19997;-82
2022/09/15 12:10:15;;;;;;;6.03;1.20;;;;;;;;;;12790152;23;20005;-82
2022/09/15 12:15:17;;;;;;;4.38;1.30;;;;;;;;;;12790422;23;20080;-82
2022/09/15 12:20:32;;;;;;;4.43;1.20;;;;;;;;;;12799177;23;20009;-82
2022/09/15 12:25:46;;;;;;;3.38;1.23;;;;;;;;;;12798380;23;20376;-82
2022/09/15 12:30:48;;;;;;;3.63;1.15;;;;;;;;;;12808171;23;20016;-82
2022/09/15 12:35:49;;;;;;;4.60;1.45;;;;;;;;;;12791249;23;20065;-80
2022/09/15 12:40:59;;;;;;;4.55;1.17;;;;;;;;;;12789911;23;20005;-79
2022/09/15 13:03:35;;;;;;;4.60;1.83;;;;;;;;;;12852380;23;20013;-83
2022/09/15 14:38:40;;;;;;;4.38;1.40;;;;;;;;;;12758882;23;20343;-81
2022/09/15 14:43:41;;;;;;;2.50;1.20;;;;;;;;;;12762571;23;20029;-83
2022/09/15 14:48:42;;;;;;;4.35;2.65;;;;;;;;;;12757423;23;20028;-81
2022/09/15 14:53:44;;;;;;;3.20;1.77;;;;;;;;;;12758026;23;19997;-81
2022/09/15 14:58:51;;;;;;;2.78;1.52;;;;;;;;;;12756934;23;20005;-82
2022/09/15 15:03:55;;;;;;;3.88;1.60;;;;;;;;;;12759421;23;20012;-84
2022/09/15 15:09:08;;;;;;;5.07;1.90;;;;;;;;;;12759814;23;20060;-83
2022/09/15 15:14:11;;;;;;;5.78;2.13;;;;;;;;;;12762001;23;19997;-83
2022/09/15 15:19:30;;;;;;;3.15;1.50;;;;;;;;;;12759303;23;20010;-81
2022/09/15 15:24:32;;;;;;;5.30;1.65;;;;;;;;;;12758622;23;20052;-81
2022/09/15 15:29:36;;;;;;;5.00;2.00;;;;;;;;;;12758785;23;20006;-81
2022/09/15 15:34:39;;;;;;;5.18;2.40;;;;;;;;;;12755794;23;20092;-80
2022/09/15 15:39:45;;;;;;;5.38;2.10;;;;;;;;;;12752603;23;20025;-78
2022/09/15 15:45:06;;;;;;;3.83;1.77;;;;;;;;;;12764064;23;20075;-80
2022/09/15 15:50:12;;;;;;;3.70;1.58;;;;;;;;;;12747692;23;20009;-78
2022/09/15 15:55:15;;;;;;;5.68;2.40;;;;;;;;;;12745248;23;20016;-79
2022/09/15 16:00:18;;;;;;;5.13;2.78;;;;;;;;;;12744247;23;20434;-78
2022/09/15 16:05:26;;;;;;;6.00;3.05;;;;;;;;;;12746572;23;20073;-80
2022/09/15 16:10:28;;;;;;;5.50;2.95;;;;;;;;;;12751482;23;20001;-78
2022/09/15 16:15:29;;;;;;;4.35;2.40;;;;;;;;;;12752809;23;20033;-81
2022/09/15 16:26:36;;;;;;;5.75;2.55;;;;;;;;;;12772987;23;20010;-86
2022/09/15 16:49:21;;;;;;;3.33;1.02;;;;;;;;;;12774008;23;20084;-86
2022/09/15 17:23:23;;;;;;;3.63;1.50;;;;;;;;;;12636545;23;20039;-84
2022/09/15 17:34:55;;;;;;;2.95;1.10;;;;;;;;;;12469971;23;20000;-84
2022/09/15 17:40:31;;;;;;;2.17;0.80;;;;;;;;;;12487473;23;20029;-85
2022/09/15 17:57:42;;;;;;;3.45;1.58;;;;;;;;;;12459064;23;20422;-85
2022/09/15 18:20:54;;;;;;;2.50;0.90;;;;;;;;;;12460424;23;20067;-85
2022/09/15 18:26:58;;;;;;;2.60;1.10;;;;;;;;;;12510651;23;20039;-85
2022/09/15 18:32:53;;;;;;;3.80;1.17;;;;;;;;;;12451369;23;20015;-85
